createdAt,value
2018-05-31T00:02:06.058Z,102664.86
2018-05-31T00:04:33.668Z,102676.44
2018-05-31T00:07:01.241Z,102676.88
2018-05-31T00:09:28.823Z,102681.23
2018-05-31T00:11:56.431Z,102683.61
2018-05-31T00:14:24.006Z,102684.61
2018-05-31T00:16:51.589Z,102687.26
2018-05-31T00:19:19.207Z,102688.20
2018-05-31T00:21:46.786Z,102689.66
2018-05-31T00:24:14.376Z,102698.89
2018-05-31T00:26:41.985Z,102694.89
2018-05-31T00:29:09.572Z,102704.06
2018-05-31T00:31:37.168Z,102707.02
2018-05-31T00:34:04.758Z,102704.34
2018-05-31T00:36:32.346Z,102711.30
2018-05-31T00:38:59.931Z,102717.68
2018-05-31T00:41:27.524Z,102722.91
2018-05-31T00:43:55.326Z,102714.67
2018-05-31T00:46:22.908Z,102723.84
2018-05-31T00:48:50.490Z,102718.48
2018-05-31T00:51:18.075Z,102727.98
2018-05-31T00:53:45.665Z,102730.88
2018-05-31T00:56:17.180Z,102723.61
2018-05-31T00:58:44.787Z,102737.02
2018-05-31T01:01:12.430Z,102743.38
2018-05-31T01:03:40.021Z,102749.41
2018-05-31T01:06:07.606Z,102740.59
2018-05-31T01:08:35.216Z,102744.58
2018-05-31T01:11:02.802Z,102747.22
2018-05-31T01:13:30.379Z,102750.63
2018-05-31T01:15:57.971Z,102756.94
2018-05-31T01:18:25.562Z,102747.76
2018-05-31T01:20:53.147Z,102748.34
2018-05-31T01:23:20.734Z,102754.12
2018-05-31T01:25:48.342Z,102761.94
2018-05-31T01:28:15.930Z,102765.20
2018-05-31T01:30:43.534Z,102761.25
2018-05-31T01:33:11.222Z,102771.92
2018-05-31T01:35:38.802Z,102761.88
2018-05-31T01:38:18.230Z,102765.41
2018-05-31T01:40:45.822Z,102759.83
2018-05-31T01:43:13.415Z,102769.63
2018-05-31T01:45:41.010Z,102775.58
2018-05-31T01:48:08.597Z,102766.94
2018-05-31T01:50:36.224Z,102762.41
2018-05-31T01:53:03.774Z,102759.06
2018-05-31T01:55:31.370Z,102776.45
2018-05-31T01:57:58.986Z,102774.55
2018-05-31T02:00:26.573Z,102771.48
2018-05-31T02:02:54.162Z,102778.53
2018-05-31T02:05:21.770Z,102767.59
2018-05-31T02:07:49.500Z,102779.59
2018-05-31T02:10:17.210Z,102789.17
2018-05-31T02:12:44.886Z,102788.88
2018-05-31T02:15:12.522Z,102786.77
2018-05-31T02:17:40.114Z,102798.89
2018-05-31T02:20:07.817Z,102796.50
2018-05-31T02:22:35.559Z,102702.84
2018-05-31T02:25:03.171Z,102791.20
2018-05-31T02:27:30.898Z,102790.39
2018-05-31T02:29:58.498Z,102799.52
2018-05-31T02:32:26.086Z,102803.63
2018-05-31T02:34:53.758Z,102597.60
2018-05-31T02:37:21.877Z,102802.31
2018-05-31T02:39:49.450Z,102814.01
2018-05-31T02:42:17.323Z,102809.86
2018-05-31T02:44:44.927Z,102799.31
2018-05-31T02:47:12.510Z,102804.16
2018-05-31T02:49:40.104Z,102809.78
2018-05-31T02:52:07.698Z,102801.12
2018-05-31T02:54:35.358Z,102806.44
2018-05-31T02:57:04.105Z,102805.77
2018-05-31T02:59:31.704Z,102814.12
2018-05-31T03:01:59.304Z,102823.25
2018-05-31T03:04:26.892Z,102818.98
2018-05-31T03:06:54.466Z,102826.02
2018-05-31T03:09:22.034Z,102820.23
2018-05-31T03:11:49.666Z,102828.02
2018-05-31T03:14:17.274Z,102825.66
2018-05-31T03:16:44.863Z,102822.59
2018-05-31T03:19:12.447Z,102822.87
2018-05-31T03:21:40.010Z,102820.70
2018-05-31T03:24:07.600Z,102822.47
2018-05-31T03:26:35.165Z,102819.20
2018-05-31T03:29:02.788Z,102823.58
2018-05-31T03:31:30.362Z,102823.58
2018-05-31T03:33:57.954Z,102827.98
2018-05-31T03:36:25.546Z,102823.91
2018-05-31T03:38:53.126Z,102834.52
2018-05-31T03:41:20.690Z,102817.65
2018-05-31T03:43:48.305Z,102827.61
2018-05-31T03:46:15.902Z,102819.70
2018-05-31T03:48:43.491Z,102822.80
2018-05-31T03:51:11.079Z,102814.42
2018-05-31T03:53:38.666Z,102814.78
2018-05-31T03:56:06.285Z,102815.55
2018-05-31T03:58:34.059Z,102810.42
2018-05-31T04:01:01.641Z,102804.36
2018-05-31T04:03:29.232Z,102809.56
2018-05-31T04:05:56.829Z,102814.94
2018-05-31T04:08:24.431Z,102817.59
2018-05-31T04:10:52.017Z,102813.19
2018-05-31T04:13:19.628Z,102817.69
2018-05-31T04:15:47.207Z,102818.42
2018-05-31T04:18:14.786Z,102815.70
2018-05-31T04:20:42.502Z,102811.62
2018-05-31T04:23:10.083Z,102808.31
2018-05-31T04:25:37.687Z,102817.27
2018-05-31T04:28:05.264Z,102808.32
2018-05-31T04:30:32.834Z,102812.23
2018-05-31T04:33:00.442Z,102821.66
2018-05-31T04:35:28.043Z,102822.01
2018-05-31T04:37:55.627Z,102817.58
2018-05-31T04:40:23.202Z,102821.72
2018-05-31T04:42:50.793Z,102823.64
2018-05-31T04:45:18.389Z,102820.28
2018-05-31T04:47:45.999Z,102816.86
2018-05-31T04:50:13.598Z,102818.44
2018-05-31T04:52:41.178Z,102820.34
2018-05-31T04:55:08.762Z,102818.19
2018-05-31T04:57:36.331Z,102810.68
2018-05-31T05:00:03.940Z,102726.16
2018-05-31T05:02:31.513Z,102810.56
2018-05-31T05:04:59.097Z,102806.37
2018-05-31T05:07:26.674Z,102802.55
2018-05-31T05:09:54.274Z,102806.52
2018-05-31T05:12:22.110Z,102802.96
2018-05-31T05:14:49.825Z,102801.30
2018-05-31T05:17:17.422Z,102805.77
2018-05-31T05:19:45.042Z,102800.77
2018-05-31T05:22:12.647Z,102799.19
2018-05-31T05:24:40.261Z,102790.92
2018-05-31T05:27:07.849Z,102798.76
2018-05-31T05:29:35.446Z,102799.06
2018-05-31T05:32:03.032Z,102799.55
2018-05-31T05:34:32.470Z,102810.63
2018-05-31T05:37:00.249Z,102810.66
2018-05-31T05:39:27.822Z,102811.34
2018-05-31T05:41:55.418Z,102806.37
2018-05-31T05:44:23.019Z,102811.53
2018-05-31T05:46:50.612Z,102800.83
2018-05-31T05:49:18.271Z,102804.78
2018-05-31T05:51:45.984Z,102799.77
2018-05-31T05:54:13.598Z,102818.73
2018-05-31T05:56:41.290Z,102817.51
2018-05-31T05:59:08.882Z,102808.67
2018-05-31T06:01:36.486Z,102812.49
2018-05-31T06:04:04.114Z,102808.81
2018-05-31T06:06:31.729Z,102811.16
2018-05-31T06:08:59.310Z,102803.84
2018-05-31T06:11:26.910Z,102800.67
2018-05-31T06:13:54.506Z,102801.98
2018-05-31T06:16:22.098Z,102805.87
2018-05-31T06:18:49.690Z,102803.16
2018-05-31T06:21:17.281Z,102808.56
2018-05-31T06:23:44.878Z,102806.32
2018-05-31T06:26:12.516Z,102806.45
2018-05-31T06:28:40.105Z,102797.59
2018-05-31T06:31:07.713Z,102801.81
2018-05-31T06:33:35.313Z,102804.60
2018-05-31T06:36:02.910Z,102809.00
2018-05-31T06:38:30.470Z,102797.23
2018-05-31T06:40:58.041Z,102796.91
2018-05-31T06:43:25.604Z,102797.48
2018-05-31T06:45:53.192Z,102797.28
2018-05-31T06:48:20.823Z,102793.73
2018-05-31T06:50:48.404Z,102801.11
2018-05-31T06:53:15.991Z,102800.67
2018-05-31T06:55:43.584Z,102802.91
2018-05-31T06:58:11.168Z,102799.08
2018-05-31T07:00:38.725Z,102808.78
2018-05-31T07:03:06.330Z,102802.69
2018-05-31T07:05:33.924Z,102793.97
2018-05-31T07:08:01.506Z,102805.00
2018-05-31T07:10:29.100Z,102798.84
2018-05-31T07:12:56.675Z,102802.39
2018-05-31T07:15:24.242Z,102793.60
2018-05-31T07:17:51.835Z,102795.45
2018-05-31T07:20:19.424Z,102795.87
2018-05-31T07:22:47.011Z,102800.61
2018-05-31T07:25:14.608Z,102790.03
2018-05-31T07:27:42.185Z,102787.39
2018-05-31T07:30:09.773Z,102779.81
2018-05-31T07:32:37.357Z,102778.76
2018-05-31T07:35:04.923Z,102782.59
2018-05-31T07:37:32.494Z,102777.23
2018-05-31T07:40:00.074Z,102784.72
2018-05-31T07:42:27.660Z,102776.13
2018-05-31T07:44:55.230Z,102776.45
2018-05-31T07:47:22.794Z,102770.09
2018-05-31T07:49:50.415Z,102752.06
2018-05-31T07:52:17.989Z,102772.96
2018-05-31T07:54:45.558Z,102778.09
2018-05-31T07:57:13.135Z,102768.92
2018-05-31T07:59:40.727Z,102772.00
2018-05-31T08:02:08.312Z,102762.64
2018-05-31T08:04:35.898Z,102759.00
2018-05-31T08:07:03.498Z,102771.70
2018-05-31T08:09:31.106Z,102762.77
2018-05-31T08:11:58.663Z,102763.92
2018-05-31T08:14:26.245Z,102692.72
2018-05-31T08:16:53.827Z,102757.03
2018-05-31T08:19:21.399Z,102757.88
2018-05-31T08:21:48.980Z,102755.12
2018-05-31T08:24:16.559Z,102753.86
2018-05-31T08:26:44.143Z,102749.14
2018-05-31T08:29:11.730Z,102753.86
2018-05-31T08:31:39.388Z,102751.87
2018-05-31T08:34:06.958Z,102742.70
2018-05-31T08:36:34.564Z,102754.11
2018-05-31T08:39:02.162Z,102746.14
2018-05-31T08:41:29.744Z,102749.22
2018-05-31T08:43:57.329Z,102744.42
2018-05-31T08:46:24.961Z,102742.21
2018-05-31T08:48:52.539Z,102747.25
2018-05-31T08:51:20.124Z,102744.88
2018-05-31T08:53:47.724Z,102734.49
2018-05-31T08:56:15.295Z,102733.73
2018-05-31T08:58:42.860Z,102730.56
2018-05-31T09:01:10.434Z,102726.66
2018-05-31T09:03:38.022Z,102718.20
2018-05-31T09:06:05.597Z,102721.48
2018-05-31T09:08:33.176Z,102719.36
2018-05-31T09:11:00.771Z,102717.69
2018-05-31T09:13:28.346Z,102714.80
2018-05-31T09:15:56.110Z,102712.86
2018-05-31T09:18:23.673Z,102697.09
2018-05-31T09:20:51.243Z,102705.93
2018-05-31T09:23:18.812Z,102699.62
2018-05-31T09:25:46.367Z,102695.43
2018-05-31T09:28:13.950Z,102690.00
2018-05-31T09:30:41.553Z,102695.43
2018-05-31T09:33:09.110Z,102689.52
2018-05-31T09:35:36.692Z,102690.66
2018-05-31T09:38:04.282Z,102679.25
2018-05-31T09:40:31.861Z,102670.91
2018-05-31T09:42:59.429Z,102670.09
2018-05-31T09:45:27.038Z,102675.00
2018-05-31T09:47:54.611Z,102669.90
2018-05-31T09:50:22.186Z,102667.49
2018-05-31T09:52:49.778Z,102667.93
2018-05-31T09:55:17.362Z,102657.16
2018-05-31T09:57:44.934Z,102646.30
2018-05-31T10:00:12.534Z,102638.26
2018-05-31T10:02:40.109Z,102644.17
2018-05-31T10:05:07.688Z,102646.21
2018-05-31T10:07:35.259Z,102635.58
2018-05-31T10:10:02.859Z,102635.19
2018-05-31T10:12:30.442Z,102632.72
2018-05-31T10:14:58.022Z,102636.73
2018-05-31T10:17:25.590Z,102633.42
2018-05-31T10:19:53.165Z,102624.92
2018-05-31T10:22:20.756Z,102627.25
2018-05-31T10:24:48.322Z,102625.48
2018-05-31T10:27:15.890Z,102616.52
2018-05-31T10:29:43.471Z,102611.22
2018-05-31T10:32:11.046Z,102608.27
2018-05-31T10:34:38.654Z,102602.73
2018-05-31T10:37:06.255Z,102600.68
2018-05-31T10:39:33.828Z,102595.73
2018-05-31T10:42:01.424Z,102591.02
2018-05-31T10:44:28.998Z,102590.06
2018-05-31T10:46:56.570Z,102584.32
2018-05-31T10:49:24.138Z,102583.13
2018-05-31T10:51:51.704Z,102577.75
2018-05-31T10:54:19.259Z,102565.72
2018-05-31T10:56:46.836Z,102566.68
2018-05-31T10:59:14.467Z,102568.80
2018-05-31T11:01:42.014Z,102561.48
2018-05-31T11:04:09.583Z,102555.55
2018-05-31T11:06:37.186Z,102562.25
2018-05-31T11:09:05.719Z,102561.52
2018-05-31T11:11:33.334Z,102551.78
2018-05-31T11:14:00.916Z,102549.75
2018-05-31T11:16:28.474Z,102546.70
2018-05-31T11:18:56.037Z,102547.45
2018-05-31T11:21:23.623Z,102540.01
2018-05-31T11:23:51.222Z,102545.13
2018-05-31T11:26:18.814Z,102531.38
2018-05-31T11:28:46.416Z,102526.50
2018-05-31T11:31:13.997Z,102521.73
2018-05-31T11:33:41.574Z,102527.63
2018-05-31T11:36:09.424Z,102521.11
2018-05-31T11:38:36.988Z,102506.58
2018-05-31T11:41:04.604Z,102508.27
2018-05-31T11:43:32.173Z,102502.19
2018-05-31T11:45:59.731Z,102501.49
2018-05-31T11:48:27.292Z,102505.73
2018-05-31T11:50:54.913Z,102504.11
2018-05-31T11:53:22.490Z,102503.98
2018-05-31T11:55:50.061Z,102496.48
2018-05-31T11:58:17.652Z,102490.17
2018-05-31T12:00:45.225Z,102481.54
2018-05-31T12:03:12.798Z,102476.06
2018-05-31T12:05:40.366Z,102473.08
2018-05-31T12:08:07.984Z,102471.53
2018-05-31T12:10:35.542Z,102466.94
2018-05-31T12:13:03.126Z,102467.83
2018-05-31T12:15:30.688Z,102454.08
2018-05-31T12:17:58.249Z,102447.83
2018-05-31T12:20:25.826Z,102447.30
2018-05-31T12:22:53.487Z,102446.41
2018-05-31T12:25:21.091Z,102443.08
2018-05-31T12:27:48.665Z,102437.52
2018-05-31T12:30:16.243Z,102438.42
2018-05-31T12:32:43.827Z,102432.05
2018-05-31T12:35:11.424Z,102424.83
2018-05-31T12:37:39.124Z,102421.09
2018-05-31T12:40:06.698Z,102424.61
2018-05-31T12:42:34.273Z,102417.52
2018-05-31T12:45:01.837Z,102414.08
2018-05-31T12:47:29.402Z,102405.28
2018-05-31T12:49:56.984Z,102411.00
2018-05-31T12:52:24.674Z,102407.55
2018-05-31T12:54:52.260Z,102403.94
2018-05-31T12:57:19.839Z,102411.19
2018-05-31T12:59:47.424Z,102396.44
2018-05-31T13:02:18.107Z,102392.73
2018-05-31T13:04:45.798Z,102387.66
2018-05-31T13:07:13.372Z,102386.27
2018-05-31T13:09:40.933Z,102384.12
2018-05-31T13:12:08.527Z,102383.00
2018-05-31T13:14:36.698Z,102378.27
2018-05-31T13:17:04.298Z,102370.23
2018-05-31T13:19:31.876Z,102366.94
2018-05-31T13:21:59.454Z,102377.14
2018-05-31T13:24:27.019Z,102366.66
2018-05-31T13:26:54.586Z,102366.81
2018-05-31T13:29:22.156Z,102370.83
2018-05-31T13:31:49.715Z,102361.74
2018-05-31T13:34:17.313Z,102355.70
2018-05-31T13:36:44.892Z,102348.14
2018-05-31T13:39:12.886Z,102348.01
2018-05-31T13:41:40.478Z,102339.61
2018-05-31T13:44:08.067Z,102336.98
2018-05-31T13:46:36.538Z,102336.39
2018-05-31T13:49:04.163Z,102338.78
2018-05-31T13:51:31.726Z,102332.59
2018-05-31T13:53:59.291Z,102324.05
2018-05-31T13:56:26.867Z,102322.34
2018-05-31T13:58:54.435Z,102323.67
2018-05-31T14:01:22.017Z,102324.23
2018-05-31T14:03:49.591Z,102320.40
2018-05-31T14:06:17.168Z,102323.08
2018-05-31T14:08:44.727Z,102317.79
2018-05-31T14:11:12.282Z,102308.31
2018-05-31T14:13:39.856Z,102309.66
2018-05-31T14:16:07.438Z,102299.48
2018-05-31T14:18:35.006Z,102299.66
2018-05-31T14:21:02.598Z,102292.16
2018-05-31T14:23:30.171Z,102294.73
2018-05-31T14:25:57.754Z,102293.70
2018-05-31T14:28:25.325Z,102276.23
2018-05-31T14:30:52.895Z,102275.91
2018-05-31T14:33:20.497Z,102276.38
2018-05-31T14:35:48.061Z,102271.13
2018-05-31T14:38:15.646Z,102260.95
2018-05-31T14:40:43.277Z,102268.68
2018-05-31T14:43:10.864Z,102260.02
2018-05-31T14:45:38.472Z,102259.59
2018-05-31T14:48:06.082Z,102258.39
2018-05-31T14:50:33.663Z,102251.97
2018-05-31T14:53:01.235Z,102246.24
2018-05-31T14:55:28.823Z,102246.54
2018-05-31T14:57:56.374Z,102242.59
2018-05-31T15:00:23.950Z,102239.78
2018-05-31T15:02:51.513Z,102232.01
2018-05-31T15:05:19.085Z,102226.82
2018-05-31T15:07:46.658Z,102213.63
2018-05-31T15:10:14.235Z,102208.60
2018-05-31T15:12:41.834Z,102200.37
2018-05-31T15:15:09.405Z,102197.25
2018-05-31T15:17:37.861Z,102201.30
2018-05-31T15:20:05.441Z,102198.92
2018-05-31T15:22:33.018Z,102193.30
2018-05-31T15:25:00.601Z,102188.38
2018-05-31T15:27:28.172Z,102192.30
2018-05-31T15:29:55.746Z,102187.54
2018-05-31T15:32:23.320Z,102182.48
2018-05-31T15:34:50.887Z,102181.58
2018-05-31T15:37:18.469Z,102176.98
2018-05-31T15:39:46.046Z,102177.73
2018-05-31T15:42:13.632Z,102174.14
2018-05-31T15:44:41.190Z,102166.34
2018-05-31T15:47:08.759Z,102163.78
2018-05-31T15:49:36.322Z,102160.30
2018-05-31T15:52:03.913Z,102163.15
2018-05-31T15:54:31.502Z,102156.88
2018-05-31T15:56:59.065Z,102153.59
2018-05-31T15:59:26.641Z,102146.89
2018-05-31T16:01:54.212Z,102146.59
2018-05-31T16:04:21.771Z,102141.70
2018-05-31T16:06:49.362Z,102139.88
2018-05-31T16:09:16.942Z,102136.97
2018-05-31T16:11:44.505Z,102132.27
2018-05-31T16:14:12.085Z,102130.33
2018-05-31T16:16:39.659Z,102133.67
2018-05-31T16:19:07.228Z,102126.20
2018-05-31T16:21:34.798Z,102121.20
2018-05-31T16:24:02.390Z,102116.56
2018-05-31T16:26:29.972Z,102117.92
2018-05-31T16:28:57.554Z,102109.08
2018-05-31T16:31:25.133Z,102106.62
2018-05-31T16:33:52.714Z,102108.23
2018-05-31T16:36:20.341Z,102108.40
2018-05-31T16:38:47.952Z,102105.17
2018-05-31T16:41:15.565Z,102104.37
2018-05-31T16:43:43.158Z,102085.98
2018-05-31T16:46:10.735Z,102086.91
2018-05-31T16:48:38.325Z,102087.70
2018-05-31T16:51:05.930Z,102082.38
2018-05-31T16:53:33.515Z,102091.05
2018-05-31T16:56:01.095Z,102093.98
2018-05-31T16:58:28.681Z,102093.12
2018-05-31T17:00:56.281Z,102099.75
2018-05-31T17:03:23.870Z,102094.09
2018-05-31T17:05:51.453Z,102091.53
2018-05-31T17:08:19.020Z,102084.23
2018-05-31T17:10:46.610Z,102092.28
2018-05-31T17:13:14.213Z,102085.32
2018-05-31T17:15:41.799Z,102080.06
2018-05-31T17:18:09.386Z,102072.27
2018-05-31T17:20:36.962Z,102073.20
2018-05-31T17:23:04.547Z,102071.98
2018-05-31T17:25:32.136Z,102062.54
2018-05-31T17:27:59.727Z,102061.69
2018-05-31T17:30:27.290Z,102053.41
2018-05-31T17:32:54.880Z,102054.80
2018-05-31T17:35:22.496Z,101948.91
2018-05-31T17:37:50.098Z,102022.52
2018-05-31T17:40:17.679Z,102047.80
2018-05-31T17:42:45.254Z,102041.75
2018-05-31T17:45:12.834Z,102041.56
2018-05-31T17:47:40.444Z,102043.48
2018-05-31T17:50:08.038Z,102045.00
2018-05-31T17:52:35.615Z,102041.35
2018-05-31T17:55:03.215Z,102035.12
2018-05-31T17:57:30.814Z,102037.80
2018-05-31T18:00:28.513Z,102033.31
2018-05-31T18:03:26.697Z,102030.63
2018-05-31T18:06:25.133Z,102035.02
2018-05-31T18:09:23.486Z,102019.11
2018-05-31T18:12:21.902Z,102022.45
2018-05-31T18:14:49.543Z,102015.89
2018-05-31T18:17:17.140Z,102013.61
2018-05-31T18:19:44.726Z,102008.69
2018-05-31T18:22:12.298Z,102017.27
2018-05-31T18:24:39.898Z,102010.09
2018-05-31T18:27:07.481Z,102006.43
2018-05-31T18:29:35.086Z,102008.56
2018-05-31T18:32:02.674Z,101996.99
2018-05-31T18:34:30.243Z,102003.59
2018-05-31T18:36:57.817Z,101998.23
2018-05-31T18:39:25.389Z,101997.13
2018-05-31T18:41:52.967Z,101997.38
2018-05-31T18:44:20.565Z,102015.52
2018-05-31T18:46:48.126Z,102019.94
2018-05-31T18:49:15.722Z,102019.01
2018-05-31T18:51:43.301Z,102019.70
2018-05-31T18:54:10.874Z,102019.45
2018-05-31T18:56:38.455Z,102017.83
2018-05-31T18:59:06.048Z,102017.22
2018-05-31T19:01:33.650Z,102014.22
2018-05-31T19:04:01.262Z,102013.19
2018-05-31T19:06:28.843Z,102023.34
2018-05-31T19:08:56.423Z,102021.78
2018-05-31T19:11:24.005Z,102012.14
2018-05-31T19:13:57.122Z,102007.81
2018-05-31T19:16:24.734Z,102000.56
2018-05-31T19:18:57.809Z,101994.52
2018-05-31T19:21:25.480Z,101997.75
2018-05-31T19:23:53.080Z,101998.94
2018-05-31T19:26:20.664Z,101983.23
2018-05-31T19:28:48.238Z,101976.39
2018-05-31T19:31:15.826Z,101981.15
2018-05-31T19:33:43.401Z,101984.19
2018-05-31T19:36:16.450Z,101985.87
2018-05-31T19:38:44.045Z,101994.88
2018-05-31T19:41:11.689Z,101980.36
2018-05-31T19:43:44.841Z,101985.69
2018-05-31T19:46:12.426Z,101986.95
2018-05-31T19:48:39.996Z,101980.75
2018-05-31T19:51:07.600Z,101984.36
2018-05-31T19:53:40.558Z,101974.59
2018-05-31T19:56:08.142Z,101973.28
2018-05-31T19:58:41.225Z,101962.63
2018-05-31T20:01:14.341Z,101962.39
2018-05-31T20:03:41.946Z,101959.81
2018-05-31T20:06:09.805Z,101954.12
2018-05-31T20:08:37.423Z,101952.96
2018-05-31T20:11:05.024Z,101962.09
2018-05-31T20:13:32.586Z,101952.63
2018-05-31T20:16:00.162Z,101952.30
2018-05-31T20:18:27.731Z,101953.56
2018-05-31T20:20:55.342Z,101952.73
2018-05-31T20:23:22.991Z,101948.52
2018-05-31T20:25:50.566Z,101946.31
2018-05-31T20:28:18.139Z,101948.58
2018-05-31T20:30:45.753Z,101943.80
2018-05-31T20:33:13.358Z,101948.31
2018-05-31T20:35:40.921Z,101943.88
2018-05-31T20:38:08.494Z,101948.11
2018-05-31T20:40:36.080Z,101942.94
2018-05-31T20:43:03.688Z,101926.81
2018-05-31T20:45:31.264Z,101941.42
2018-05-31T20:47:58.838Z,101947.38
2018-05-31T20:50:26.459Z,101944.76
2018-05-31T20:52:54.019Z,101939.95
2018-05-31T20:55:21.575Z,101946.40
2018-05-31T20:57:49.152Z,101942.52
2018-05-31T21:00:16.753Z,101942.87
2018-05-31T21:02:44.329Z,101950.36
2018-05-31T21:05:11.942Z,101955.91
2018-05-31T21:07:39.528Z,101944.05
2018-05-31T21:10:07.111Z,101948.80
2018-05-31T21:12:34.702Z,101943.56
2018-05-31T21:15:02.302Z,101954.61
2018-05-31T21:17:29.887Z,101959.73
2018-05-31T21:19:57.503Z,101956.82
2018-05-31T21:22:25.058Z,101940.66
2018-05-31T21:24:52.626Z,101926.22
2018-05-31T21:27:20.208Z,101933.06
2018-05-31T21:29:47.815Z,101931.23
2018-05-31T21:32:15.382Z,101926.48
2018-05-31T21:34:43.207Z,101923.98
2018-05-31T21:37:11.653Z,101923.39
2018-05-31T21:39:39.263Z,101924.09
2018-05-31T21:42:06.849Z,101889.61
2018-05-31T21:44:34.438Z,101901.77
2018-05-31T21:47:02.032Z,101898.52
2018-05-31T21:49:29.610Z,101888.06
2018-05-31T21:51:57.175Z,101881.30
2018-05-31T21:54:24.751Z,101872.62
2018-05-31T21:56:52.331Z,101869.02
2018-05-31T21:59:20.040Z,101867.53
2018-05-31T22:01:47.635Z,101865.97
2018-05-31T22:04:15.353Z,101864.11
2018-05-31T22:06:42.948Z,101865.00
2018-05-31T22:09:10.606Z,101855.83
2018-05-31T22:11:38.179Z,101859.03
2018-05-31T22:14:05.802Z,101855.54
2018-05-31T22:16:33.392Z,101856.14
2018-05-31T22:19:00.967Z,101844.78
2018-05-31T22:21:28.554Z,101852.85
2018-05-31T22:23:56.128Z,101852.70
2018-05-31T22:26:23.687Z,101863.31
2018-05-31T22:28:51.260Z,101867.69
2018-05-31T22:31:18.852Z,101868.69
2018-05-31T22:33:46.410Z,101870.97
2018-05-31T22:36:14.009Z,101868.06
2018-05-31T22:38:41.581Z,101866.73
2018-05-31T22:41:09.150Z,101870.33
2018-05-31T22:43:36.720Z,101874.11
2018-05-31T22:46:04.343Z,101873.09
2018-05-31T22:48:31.959Z,101858.13
2018-05-31T22:50:59.720Z,101867.31
2018-05-31T22:53:27.290Z,101856.05
2018-05-31T22:55:54.872Z,101855.22
2018-05-31T22:58:22.489Z,101855.96
2018-05-31T23:00:50.077Z,101861.13
2018-05-31T23:03:17.666Z,101855.80
2018-05-31T23:05:45.251Z,101854.25
2018-05-31T23:08:12.822Z,101852.09
2018-05-31T23:10:40.397Z,101849.44
2018-05-31T23:13:08.040Z,101848.27
2018-05-31T23:15:35.605Z,101849.61
2018-05-31T23:18:03.182Z,101846.89
2018-05-31T23:20:30.769Z,101844.36
2018-05-31T23:22:58.359Z,101837.44
2018-05-31T23:25:25.931Z,101825.34
2018-05-31T23:27:53.502Z,101837.10
2018-05-31T23:30:21.098Z,101837.48
2018-05-31T23:32:48.671Z,101830.55
2018-05-31T23:35:16.248Z,101819.23
2018-05-31T23:37:43.809Z,101810.92
2018-05-31T23:40:11.414Z,101817.30
2018-05-31T23:42:39.052Z,101816.82
2018-05-31T23:45:06.629Z,101812.21
2018-05-31T23:47:34.217Z,101821.73
2018-05-31T23:50:01.800Z,101816.75
2018-05-31T23:52:29.378Z,101821.50
2018-05-31T23:54:56.956Z,101814.73
2018-05-31T23:57:24.538Z,101814.72
2018-05-31T23:59:52.110Z,101814.55
